Latest Coastal Weather Observations for Point Perpendicular

IDN60701

Issued at 5:25 pm EST Wednesday 3 September 2014 (issued every 10 minutes, with the page automatically refreshed every 10 minutes)

About coastal observations | Map of coastal stations | Coastal observations for NSW | Marine services | Other Formats
Station Details ID: 068151 Name: POINT PERPENDICULAR AWS Lat: -35.09 Lon: 150.80 Height: 85.0 m
Data from the previous 72 hours. | See also: Recent months at Point Perpendicular
Date/Time
EST
Temp

°C
Wind Pressure Rain
since 9am
mm
Weather Cloud Vis
km
Sea
Height
m
Swell
Dir
 
Speed
knots
Gust
knots
hPa Trend Height
m
Period
s
Dir
03/05:00pm 13.1 SSW 20 31 1012.6 - 0.6 - - - - - - -
03/04:30pm 12.8 SSW 21 33 1011.5 - 0.4 - - - - - - -
03/04:00pm 13.3 SSW 19 29 1012.1 - 0.4 - - - - - - -
03/03:30pm 12.4 SSW 23 35 1011.8 - 0.4 - - - - - - -
03/03:00pm 12.6 SSW 23 34 1010.9 - 0.2 - - - - - - -
03/02:30pm 13.2 SSW 22 36 1011.6 - 0.2 - - - - - - -
03/02:02pm 12.8 SSW 19 29 1011.0 - 0.2 - - - - - - -
03/02:00pm 12.7 SSW 19 28 1011.0 - 0.2 - - - - - - -
03/01:33pm 11.8 SSW 24 44 1010.7 - 0.2 - - - - - - -
03/01:30pm 12.6 SSW 22 33 1010.2 - 0.2 - - - - - - -
03/01:00pm 11.7 SSW 22 35 1012.2 - 0.2 - - - - - - -
03/12:30pm 12.3 SSW 25 37 1012.4 - 0.2 - - - - - - -
03/12:13pm 12.7 SSW 21 35 1010.5 - 0.2 - - - - - - -
03/12:00pm 12.1 SSW 24 38 1012.7 - 0.2 - - - - - - -
03/11:30am 11.6 SSW 24 36 1012.2 - 0.2 - - - - - - -
03/11:00am 11.6 S 25 38 1011.9 - 0.0 - - - - - - -
03/10:30am 12.4 SSW 27 39 1011.8 - 0.0 - - - - - - -
03/10:00am 12.4 S 25 39 1011.4 - 0.0 - - - - - - -
03/09:30am 12.2 SSW 25 42 1011.5 - 0.0 - - - - - - -
03/09:00am 12.1 SSW 25 41 1011.8 - 23.6 - - - - - - -
03/08:30am 12.2 SSW 27 44 1011.5 - 23.6 - - - - - - -
03/08:00am 12.1 SSW 25 45 1011.7 - 23.6 - - - - - - -
03/07:30am 11.7 SSW 27 45 1011.0 - 23.6 - - - - - - -
03/07:00am 11.3 SSW 24 38 1011.8 - 23.6 - - - - - - -
03/06:30am 11.9 SSW 23 35 1011.6 - 23.6 - - - - - - -
03/06:00am 11.6 SSW 27 42 1010.1 - 23.6 - - - - - - -
03/05:30am 11.4 SSW 23 37 1010.2 - 23.6 - - - - - - -
03/05:00am 11.6 SSW 27 42 1010.4 - 23.6 - - - - - - -
03/04:30am 11.7 SSW 27 43 1009.2 - 23.4 - - - - - - -
03/04:00am 12.2 SSW 26 42 1009.5 - 23.4 - - - - - - -
03/03:30am 12.0 SSW 26 42 1009.0 - 23.4 - - - - - - -
03/03:00am 11.6 SSW 26 42 1009.0 - 23.4 - - - - - - -
03/02:30am 12.0 SSW 25 42 1009.0 - 23.4 - - - - - - -
03/02:04am 11.1 SSW 24 49 1008.4 - 23.4 - - - - - - -
03/02:00am 12.5 SSW 25 38 1009.2 - 23.4 - - - - - - -
03/01:54am 12.2 SSW 23 37 1009.1 - 23.4 - - - - - - -
03/01:34am 10.9 SSW 37 52 1009.0 - 23.2 - - - - - - -
03/01:30am 12.1 SSW 23 42 1008.9 - 23.2 - - - - - - -
03/01:00am 11.2 SSW 28 46 1009.7 - 23.2 - - - - - - -
03/12:59am 11.5 SSW 28 46 1010.0 - 23.2 - - - - - - -
03/12:30am 12.0 S 25 41 1008.0 - 23.2 - - - - - - -
03/12:00am 11.4 SSW 28 46 1009.1 - 22.4 - - - - - - -
 
Date/Time
EST
Temp

°C
Wind Pressure Rain
since 9am
mm
Weather Cloud Vis
km
Sea
Height
m
Swell
Dir
 
Speed
knots
Gust
knots
hPa Trend Height
m
Period
s
Dir
02/11:30pm 12.4 SSW 28 47 1008.1 - 22.4 - - - - - - -
02/11:00pm 12.3 SSW 25 45 1007.6 - 22.4 - - - - - - -
02/10:30pm 11.0 S 27 46 1008.1 - 22.2 - - - - - - -
02/10:00pm 11.0 SSW 28 43 1009.1 - 22.0 - - - - - - -
02/09:44pm 11.3 S 31 42 1009.0 - 21.6 - - - - - - -
02/09:30pm 10.4 SSW 20 33 1009.4 - 21.6 - - - - - - -
02/09:00pm 10.0 SW 18 32 1010.5 - 16.0 - - - - - - -
02/08:43pm 9.6 SW 18 28 1010.6 - 13.8 - - - - - - -
02/08:30pm 9.5 SW 19 26 1010.9 - 11.8 - - - - - - -
02/08:00pm 9.3 SW 19 33 1010.3 - 7.8 - - - - - - -
02/07:30pm 9.7 SW 17 31 1010.8 - 4.0 - - - - - - -
02/07:00pm 9.5 SW 15 27 1010.3 - 2.6 - - - - - - -
02/06:32pm 9.9 SW 15 28 1010.3 - 1.4 - - - - - - -
02/06:30pm 10.0 SW 14 22 1010.3 - 1.4 - - - - - - -
02/06:00pm 10.6 SW 21 33 1010.0 - 1.2 - - - - - - -
02/05:30pm 10.9 SW 20 31 1009.8 - 1.2 - - - - - - -
02/05:00pm 12.1 SSW 20 33 1008.0 - 1.2 - - - - - - -
02/04:30pm 11.9 SSW 18 28 1007.9 - 1.2 - - - - - - -
02/04:24pm 12.6 SSW 15 27 1007.3 - 1.0 - - - - - - -
02/04:00pm 13.1 SSW 14 22 1007.7 - 1.0 - - - - - - -
02/03:30pm 13.5 SSW 13 21 1007.8 - 1.0 - - - - - - -
02/03:00pm 13.3 SSW 9 14 1007.6 - 1.0 - - - - - - -
02/02:40pm 12.4 SW 15 25 1007.8 - 0.8 - - - - - - -
02/02:30pm 12.8 SW 12 18 1008.0 - 0.6 - - - - - - -
02/02:00pm 14.0 SSW 8 13 1007.9 - 0.6 - - - - - - -
02/01:30pm 13.8 SSW 9 14 1008.2 - 0.6 - - - - - - -
02/01:00pm 13.9 SW 9 15 1008.0 - 0.6 - - - - - - -
02/12:30pm 13.5 SSW 10 16 1008.4 - 0.6 - - - - - - -
02/12:00pm 13.6 SW 9 16 1008.8 - 0.6 - - - - - - -
02/11:30am 13.3 SW 8 12 1009.1 - 0.6 - - - - - - -
02/11:00am 13.1 SSW 9 14 1008.8 - 0.6 - - - - - - -
02/10:30am 12.4 SW 10 16 1009.4 - 0.6 - - - - - - -
02/10:00am 12.2 SSW 14 19 1009.2 - 0.6 - - - - - - -
02/09:30am 11.6 SSW 13 21 1009.6 - 0.6 - - - - - - -
02/09:00am 12.5 WSW 9 14 1009.1 - 0.0 - - - - - - -
02/08:30am 13.6 W 8 13 1009.5 - 0.0 - - - - - - -
02/08:00am 13.8 W 6 9 1008.9 - 0.0 - - - - - - -
02/07:30am 14.0 W 6 9 1008.9 - 0.0 - - - - - - -
02/07:00am 13.9 WNW 6 8 1008.5 - 0.0 - - - - - - -
02/06:30am 13.6 N 6 8 1008.2 - 0.0 - - - - - - -
02/06:00am 13.9 NNW 4 5 1007.8 - 0.0 - - - - - - -
02/05:30am 13.8 N 6 8 1008.0 - 0.0 - - - - - - -
02/05:00am 13.9 N 5 6 1008.0 - 0.0 - - - - - - -
02/04:30am 14.6 NNW 4 5 1008.3 - 0.0 - - - - - - -
02/04:00am 15.2 NW 5 8 1008.4 - 0.0 - - - - - - -
02/03:30am 15.6 WNW 6 11 1008.6 - 0.0 - - - - - - -
02/03:00am 16.0 WNW 6 12 1008.6 - 0.0 - - - - - - -
02/02:30am 16.6 WNW 8 12 1008.9 - 0.0 - - - - - - -
02/02:00am 16.7 WNW 5 6 1008.8 - 0.0 - - - - - - -
02/01:30am 16.2 NW 6 9 1008.7 - 0.0 - - - - - - -
02/01:00am 17.1 N 6 8 1008.2 - 0.0 - - - - - - -
02/12:30am 17.1 N 8 11 1008.3 - 0.0 - - - - - - -
02/12:00am 17.2 NNE 7 9 1008.5 - 0.0 - - - - - - -
 
Date/Time
EST
Temp

°C
Wind Pressure Rain
since 9am
mm
Weather Cloud Vis
km
Sea
Height
m
Swell
Dir
 
Speed
knots
Gust
knots
hPa Trend Height
m
Period
s
Dir
01/11:30pm 17.3 N 7 9 1009.0 - 0.0 - - - - - - -
01/11:00pm 17.1 N 7 9 1009.3 - 0.0 - - - - - - -
01/10:30pm 16.7 NNE 7 9 1009.5 - 0.0 - - - - - - -
01/10:00pm 16.9 N 7 8 1009.7 - 0.0 - - - - - - -
01/09:30pm 16.5 N 7 9 1009.9 - 0.0 - - - - - - -
01/09:00pm 16.5 N 8 11 1010.0 - 0.0 - - - - - - -
01/08:30pm 16.0 N 8 9 1010.4 - 0.0 - - - - - - -
01/08:00pm 15.8 NNE 7 8 1010.4 - 0.0 - - - - - - -
01/07:30pm 15.9 NNE 7 8 1010.8 - 0.0 - - - - - - -
01/07:00pm 17.4 NNE 6 8 1010.6 - 0.0 - - - - - - -
01/06:30pm 18.1 N 5 8 1010.6 - 0.0 - - - - - - -
01/06:00pm 18.8 NW 5 6 1010.3 - 0.0 - - - - - - -
01/05:30pm 18.9 NNW 7 11 1010.3 - 0.0 - - - - - - -
01/05:00pm 18.3 N 6 11 1010.1 - 0.0 - - - - - - -
01/04:30pm 18.8 N 6 11 1010.1 - 0.0 - - - - - - -
01/04:00pm 21.0 NNW 6 9 1009.9 - 0.0 - - - - - - -
01/03:30pm 21.8 NNW 5 9 1009.9 - 0.0 - - - - - - -
01/03:00pm 21.7 N 6 11 1009.9 - 0.0 - - - - - - -
01/02:30pm 20.0 NNE 7 12 1010.2 - 0.0 - - - - - - -
01/02:00pm 20.5 NNE 11 15 1010.6 - 0.0 - - - - - - -
01/01:30pm 21.6 N 12 16 1010.8 - 0.0 - - - - - - -
01/01:00pm 21.7 N 8 12 1011.1 - 0.0 - - - - - - -
01/12:30pm 21.4 N 7 11 1011.8 - 0.0 - - - - - - -
01/12:00pm 20.6 N 8 12 1012.4 - 0.0 - - - - - - -
01/11:30am 20.0 N 8 12 1013.1 - 0.0 - - - - - - -
01/11:00am 18.5 NNW 9 13 1013.2 - 0.0 - - - - - - -
01/10:30am 17.8 NNW 8 13 1013.8 - 0.0 - - - - - - -
01/10:00am 17.8 NNW 9 13 1014.2 - 0.0 - - - - - - -
01/09:30am 16.9 NNW 9 14 1014.8 - 0.0 - - - - - - -
01/09:00am 15.7 NNW 11 15 1015.1 - 0.0 - - - - - - -
01/08:30am 14.3 NNW 10 16 1015.2 - 0.0 - - - - - - -
01/08:00am 13.5 NNW 8 13 1015.2 - 0.0 - - - - - - -
01/07:30am 13.9 NNW 9 13 1015.1 - 0.0 - - - - - - -
01/07:00am 13.0 NNW 11 14 1015.0 - 0.0 - - - - - - -
01/06:30am 11.7 NNW 8 11 1015.0 - 0.0 - - - - - - -
01/06:00am 11.7 NNW 8 11 1014.9 - 0.0 - - - - - - -
01/05:30am 11.9 NNW 7 9 1014.8 - 0.0 - - - - - - -
01/05:00am 11.4 NNW 7 9 1014.8 - 0.0 - - - - - - -
01/04:30am 11.7 NNW 7 9 1014.7 - 0.0 - - - - - - -
01/04:00am 11.1 NNW 7 8 1014.9 - 0.0 - - - - - - -
01/03:30am 11.3 NNW 7 8 1014.9 - 0.0 - - - - - - -
01/03:00am 10.9 N 7 8 1015.0 - 0.0 - - - - - - -
01/02:30am 10.9 N 7 8 1015.2 - 0.0 - - - - - - -
01/02:00am 10.7 N 6 7 1015.7 - 0.0 - - - - - - -
01/01:30am 11.3 N 7 8 1016.1 - 0.0 - - - - - - -
01/01:00am 11.6 N 7 8 1016.3 - 0.0 - - - - - - -
01/12:30am 12.3 N 6 7 1016.6 - 0.0 - - - - - - -
01/12:00am 12.7 N 7 8 1016.7 - 0.0 - - - - - - -
 
Date/Time
EST
Temp

°C
Wind Pressure Rain
since 9am
mm
Weather Cloud Vis
km
Sea
Height
m
Swell
Dir
 
Speed
knots
Gust
knots
hPa Trend Height
m
Period
s
Dir
31/11:30pm 12.4 N 7 8 1016.9 - 0.0 - - - - - - -
31/11:00pm 13.1 N 7 9 1017.3 - 0.0 - - - - - - -
31/10:30pm 12.8 N 7 9 1017.4 - 0.0 - - - - - - -
31/10:00pm 13.1 N 7 8 1017.8 - 0.0 - - - - - - -
31/09:30pm 13.2 N 6 8 1017.8 - 0.0 - - - - - - -
31/09:00pm 13.2 NNE 7 8 1017.8 - 0.0 - - - - - - -
31/08:30pm 13.2 NNE 6 7 1017.9 - 0.0 - - - - - - -
31/08:00pm 13.4 NNE 4 5 1017.9 - 0.0 - - - - - - -
31/07:30pm 13.4 NE 2 4 1018.0 - 0.0 - - - - - - -
31/07:00pm 13.6 NNE 6 7 1017.8 - 0.0 - - - - - - -
31/06:30pm 14.5 NE 6 7 1017.6 - 0.0 - - - - - - -
31/06:00pm 14.9 ENE 5 6 1017.2 - 0.0 - - - - - - -
31/05:30pm 15.4 ENE 5 6 1017.1 - 0.0 - - - - - - -

Other Formats:

Comma delimited format used in spreadsheet applications
http://www.bom.gov.au/fwo/IDN60701/IDN60701.95940.axf

JavaScript Object Notation format (JSON) in row-major order
http://www.bom.gov.au/fwo/IDN60701/IDN60701.95940.json